sensor_id;sensor_type;location;lat;lon;timestamp;pressure;altitude;pressure_sealevel;temperature;humidity
41515;BME280;27247;48.020;16.720;2022-11-21T00:00:12;99265.50;;;1.89;100.00
41515;BME280;27247;48.020;16.720;2022-11-21T00:04:23;99263.47;;;2.02;100.00
41515;BME280;27247;48.020;16.720;2022-11-21T00:08:33;99265.66;;;1.87;100.00
41515;BME280;27247;48.020;16.720;2022-11-21T00:12:43;99268.66;;;1.73;100.00
41515;BME280;27247;48.020;16.720;2022-11-21T00:16:54;99259.72;;;1.55;100.00
41515;BME280;27247;48.020;16.720;2022-11-21T00:21:14;99269.81;;;1.50;100.00
41515;BME280;27247;48.020;16.720;2022-11-21T00:25:25;99260.91;;;1.41;100.00
41515;BME280;27247;48.020;16.720;2022-11-21T00:29:35;99265.78;;;1.46;100.00
41515;BME280;27247;48.020;16.720;2022-11-21T00:33:45;99266.63;;;1.46;100.00
41515;BME280;27247;48.020;16.720;2022-11-21T00:37:56;99270.03;;;1.37;100.00
41515;BME280;27247;48.020;16.720;2022-11-21T00:42:06;99268.63;;;1.33;100.00
41515;BME280;27247;48.020;16.720;2022-11-21T00:46:16;99264.09;;;1.14;100.00
41515;BME280;27247;48.020;16.720;2022-11-21T00:50:27;99258.00;;;1.14;100.00
41515;BME280;27247;48.020;16.720;2022-11-21T00:54:37;99252.09;;;1.21;100.00
41515;BME280;27247;48.020;16.720;2022-11-21T00:58:47;99259.09;;;1.11;100.00
41515;BME280;27247;48.020;16.720;2022-11-21T01:02:58;99246.69;;;1.23;100.00
41515;BME280;27247;48.020;16.720;2022-11-21T01:07:08;99242.00;;;1.26;100.00
41515;BME280;27247;48.020;16.720;2022-11-21T01:11:19;99239.56;;;1.35;100.00
41515;BME280;27247;48.020;16.720;2022-11-21T01:15:30;99230.53;;;1.27;100.00
41515;BME280;27247;48.020;16.720;2022-11-21T01:19:40;99219.56;;;1.22;100.00
41515;BME280;27247;48.020;16.720;2022-11-21T01:23:51;99224.81;;;1.22;100.00
41515;BME280;27247;48.020;16.720;2022-11-21T01:28:01;99211.31;;;1.06;100.00
41515;BME280;27247;48.020;16.720;2022-11-21T01:32:11;99211.88;;;0.89;100.00
41515;BME280;27247;48.020;16.720;2022-11-21T01:36:24;99205.97;;;0.76;100.00
41515;BME280;27247;48.020;16.720;2022-11-21T01:40:37;99208.69;;;0.44;100.00
41515;BME280;27247;48.020;16.720;2022-11-21T01:44:50;99199.25;;;0.62;100.00
41515;BME280;27247;48.020;16.720;2022-11-21T01:49:05;99198.47;;;0.50;100.00
41515;BME280;27247;48.020;16.720;2022-11-21T01:53:17;99212.34;;;0.52;100.00
41515;BME280;27247;48.020;16.720;2022-11-21T01:57:28;99206.50;;;0.49;100.00
41515;BME280;27247;48.020;16.720;2022-11-21T02:01:43;99192.91;;;0.44;100.00
41515;BME280;27247;48.020;16.720;2022-11-21T02:05:54;99187.44;;;0.36;100.00
41515;BME280;27247;48.020;16.720;2022-11-21T02:10:06;99189.94;;;0.37;100.00
41515;BME280;27247;48.020;16.720;2022-11-21T02:14:17;99180.19;;;0.28;100.00
41515;BME280;27247;48.020;16.720;2022-11-21T02:18:27;99176.34;;;0.11;100.00
41515;BME280;27247;48.020;16.720;2022-11-21T02:27:13;99167.75;;;0.09;100.00
41515;BME280;27247;48.020;16.720;2022-11-21T02:31:23;99160.59;;;0.11;100.00
41515;BME280;27247;48.020;16.720;2022-11-21T02:35:34;99165.63;;;-0.08;100.00
41515;BME280;27247;48.020;16.720;2022-11-21T02:39:45;99161.34;;;-0.09;100.00
41515;BME280;27247;48.020;16.720;2022-11-21T02:44:08;99156.72;;;-0.17;100.00
41515;BME280;27247;48.020;16.720;2022-11-21T02:48:23;99142.19;;;-0.21;100.00
41515;BME280;27247;48.020;16.720;2022-11-21T02:52:33;99121.97;;;-0.09;100.00
41515;BME280;27247;48.020;16.720;2022-11-21T02:56:44;99110.47;;;-0.29;100.00
41515;BME280;27247;48.020;16.720;2022-11-21T03:00:54;99111.69;;;-0.33;100.00
41515;BME280;27247;48.020;16.720;2022-11-21T03:05:07;99119.34;;;-0.41;100.00
41515;BME280;27247;48.020;16.720;2022-11-21T03:09:18;99119.25;;;-0.51;100.00
41515;BME280;27247;48.020;16.720;2022-11-21T03:13:28;99139.44;;;-0.62;100.00
41515;BME280;27247;48.020;16.720;2022-11-21T03:17:39;99149.31;;;-0.55;100.00
41515;BME280;27247;48.020;16.720;2022-11-21T03:21:50;99148.72;;;-0.58;100.00
41515;BME280;27247;48.020;16.720;2022-11-21T03:26:00;99157.31;;;-0.68;100.00
41515;BME280;27247;48.020;16.720;2022-11-21T03:30:11;99161.97;;;-0.82;100.00
41515;BME280;27247;48.020;16.720;2022-11-21T03:34:21;99154.22;;;-1.06;100.00
41515;BME280;27247;48.020;16.720;2022-11-21T03:38:32;99157.91;;;-1.09;100.00
41515;BME280;27247;48.020;16.720;2022-11-21T03:42:42;99155.06;;;-1.06;100.00
41515;BME280;27247;48.020;16.720;2022-11-21T03:46:52;99151.97;;;-1.00;100.00
41515;BME280;27247;48.020;16.720;2022-11-21T03:51:03;99148.16;;;-0.95;100.00
41515;BME280;27247;48.020;16.720;2022-11-21T03:55:13;99142.31;;;-0.88;100.00
41515;BME280;27247;48.020;16.720;2022-11-21T03:59:24;99140.41;;;-0.75;100.00
41515;BME280;27247;48.020;16.720;2022-11-21T04:03:35;99137.91;;;-0.76;100.00
41515;BME280;27247;48.020;16.720;2022-11-21T04:07:45;99131.69;;;-0.64;100.00
41515;BME280;27247;48.020;16.720;2022-11-21T04:11:55;99111.03;;;-0.57;100.00
41515;BME280;27247;48.020;16.720;2022-11-21T04:16:06;99102.09;;;-0.55;100.00
41515;BME280;27247;48.020;16.720;2022-11-21T04:20:16;99109.25;;;-0.57;100.00
41515;BME280;27247;48.020;16.720;2022-11-21T04:24:27;99109.59;;;-0.50;100.00
41515;BME280;27247;48.020;16.720;2022-11-21T04:28:37;99113.38;;;-0.43;100.00
41515;BME280;27247;48.020;16.720;2022-11-21T04:32:49;99127.34;;;-0.43;100.00
41515;BME280;27247;48.020;16.720;2022-11-21T04:37:00;99132.53;;;-0.32;100.00
41515;BME280;27247;48.020;16.720;2022-11-21T04:41:10;99132.66;;;-0.33;100.00
41515;BME280;27247;48.020;16.720;2022-11-21T04:45:20;99142.22;;;-0.32;100.00
41515;BME280;27247;48.020;16.720;2022-11-21T04:49:31;99155.09;;;-0.29;100.00
41515;BME280;27247;48.020;16.720;2022-11-21T04:53:41;99158.78;;;-0.32;100.00
41515;BME280;27247;48.020;16.720;2022-11-21T04:57:54;99166.56;;;-0.41;100.00
41515;BME280;27247;48.020;16.720;2022-11-21T05:02:04;99183.16;;;-0.41;100.00
41515;BME280;27247;48.020;16.720;2022-11-21T05:06:15;99183.63;;;-0.36;100.00
41515;BME280;27247;48.020;16.720;2022-11-21T05:10:25;99187.44;;;-0.40;100.00
41515;BME280;27247;48.020;16.720;2022-11-21T05:14:36;99198.41;;;-0.35;100.00
41515;BME280;27247;48.020;16.720;2022-11-21T05:18:46;99206.63;;;-0.28;100.00
41515;BME280;27247;48.020;16.720;2022-11-21T05:22:56;99211.28;;;-0.32;100.00
41515;BME280;27247;48.020;16.720;2022-11-21T05:27:07;99195.38;;;-0.19;100.00
41515;BME280;27247;48.020;16.720;2022-11-21T05:31:17;99185.47;;;-0.15;100.00
41515;BME280;27247;48.020;16.720;2022-11-21T05:35:27;99185.31;;;0.09;100.00
41515;BME280;27247;48.020;16.720;2022-11-21T05:39:38;99172.41;;;0.06;100.00
41515;BME280;27247;48.020;16.720;2022-11-21T05:43:48;99179.94;;;0.10;100.00
41515;BME280;27247;48.020;16.720;2022-11-21T05:47:59;99178.84;;;0.13;100.00
41515;BME280;27247;48.020;16.720;2022-11-21T05:52:09;99178.84;;;0.13;100.00
41515;BME280;27247;48.020;16.720;2022-11-21T05:56:19;99165.50;;;0.05;100.00
41515;BME280;27247;48.020;16.720;2022-11-21T06:00:30;99154.25;;;0.14;100.00
41515;BME280;27247;48.020;16.720;2022-11-21T06:04:40;99138.16;;;0.07;100.00
41515;BME280;27247;48.020;16.720;2022-11-21T06:08:50;99131.84;;;-0.02;100.00
41515;BME280;27247;48.020;16.720;2022-11-21T06:13:01;99123.50;;;-0.07;100.00
41515;BME280;27247;48.020;16.720;2022-11-21T06:17:12;99120.03;;;0.04;100.00
41515;BME280;27247;48.020;16.720;2022-11-21T06:21:24;99117.16;;;0.07;100.00
41515;BME280;27247;48.020;16.720;2022-11-21T06:25:35;99112.66;;;0.19;100.00
41515;BME280;27247;48.020;16.720;2022-11-21T06:29:45;99107.59;;;0.27;100.00
41515;BME280;27247;48.020;16.720;2022-11-21T06:33:57;99101.69;;;0.35;100.00
41515;BME280;27247;48.020;16.720;2022-11-21T06:38:08;99111.25;;;0.36;100.00
41515;BME280;27247;48.020;16.720;2022-11-21T06:42:18;99115.84;;;0.43;100.00
41515;BME280;27247;48.020;16.720;2022-11-21T06:46:28;99111.31;;;0.45;100.00
41515;BME280;27247;48.020;16.720;2022-11-21T06:50:39;99107.09;;;0.33;100.00
41515;BME280;27247;48.020;16.720;2022-11-21T06:54:49;99099.78;;;0.37;100.00
41515;BME280;27247;48.020;16.720;2022-11-21T06:58:59;99091.75;;;0.59;100.00
41515;BME280;27247;48.020;16.720;2022-11-21T07:03:10;99094.53;;;0.67;100.00
41515;BME280;27247;48.020;16.720;2022-11-21T07:07:20;99106.72;;;0.68;100.00
41515;BME280;27247;48.020;16.720;2022-11-21T07:11:31;99110.22;;;0.78;100.00
41515;BME280;27247;48.020;16.720;2022-11-21T07:15:45;99111.50;;;0.84;100.00
41515;BME280;27247;48.020;16.720;2022-11-21T07:19:55;99127.47;;;0.92;100.00
41515;BME280;27247;48.020;16.720;2022-11-21T07:24:06;99123.44;;;0.88;100.00
41515;BME280;27247;48.020;16.720;2022-11-21T07:28:16;99119.44;;;0.93;100.00
41515;BME280;27247;48.020;16.720;2022-11-21T07:32:27;99110.44;;;0.96;100.00
41515;BME280;27247;48.020;16.720;2022-11-21T07:36:37;99109.75;;;0.94;100.00
41515;BME280;27247;48.020;16.720;2022-11-21T07:40:48;99112.34;;;0.84;100.00
41515;BME280;27247;48.020;16.720;2022-11-21T07:44:58;99116.53;;;0.96;100.00
41515;BME280;27247;48.020;16.720;2022-11-21T07:49:08;99106.22;;;1.05;100.00
41515;BME280;27247;48.020;16.720;2022-11-21T07:53:18;99099.16;;;1.05;100.00
41515;BME280;27247;48.020;16.720;2022-11-21T07:57:29;99110.81;;;1.12;100.00
41515;BME280;27247;48.020;16.720;2022-11-21T08:01:40;99112.13;;;1.37;100.00
41515;BME280;27247;48.020;16.720;2022-11-21T08:05:50;99129.44;;;1.40;100.00
41515;BME280;27247;48.020;16.720;2022-11-21T08:10:00;99120.97;;;1.36;100.00
41515;BME280;27247;48.020;16.720;2022-11-21T08:14:10;99112.97;;;1.57;100.00
41515;BME280;27247;48.020;16.720;2022-11-21T08:18:21;99124.78;;;1.72;100.00
41515;BME280;27247;48.020;16.720;2022-11-21T08:22:31;99113.16;;;1.84;100.00
41515;BME280;27247;48.020;16.720;2022-11-21T08:26:43;99101.38;;;1.98;100.00
41515;BME280;27247;48.020;16.720;2022-11-21T08:30:53;99099.84;;;2.15;100.00
41515;BME280;27247;48.020;16.720;2022-11-21T08:35:04;99102.06;;;2.29;100.00
41515;BME280;27247;48.020;16.720;2022-11-21T08:39:14;99092.88;;;2.43;100.00
41515;BME280;27247;48.020;16.720;2022-11-21T08:43:25;99086.16;;;2.58;100.00
41515;BME280;27247;48.020;16.720;2022-11-21T08:47:35;99100.38;;;2.84;100.00
41515;BME280;27247;48.020;16.720;2022-11-21T08:51:46;99104.06;;;3.01;100.00
41515;BME280;27247;48.020;16.720;2022-11-21T08:55:59;99099.84;;;3.08;100.00
41515;BME280;27247;48.020;16.720;2022-11-21T09:00:10;99098.63;;;3.03;100.00
41515;BME280;27247;48.020;16.720;2022-11-21T09:04:24;99107.97;;;2.97;100.00
41515;BME280;27247;48.020;16.720;2022-11-21T09:08:34;99096.56;;;2.97;100.00
41515;BME280;27247;48.020;16.720;2022-11-21T09:12:44;99094.34;;;3.02;100.00
41515;BME280;27247;48.020;16.720;2022-11-21T09:16:55;99096.28;;;3.00;100.00
41515;BME280;27247;48.020;16.720;2022-11-21T09:21:24;99084.03;;;3.08;100.00
41515;BME280;27247;48.020;16.720;2022-11-21T09:25:35;99085.38;;;3.22;100.00
41515;BME280;27247;48.020;16.720;2022-11-21T09:29:45;99093.84;;;3.43;100.00
41515;BME280;27247;48.020;16.720;2022-11-21T09:33:55;99083.53;;;3.50;100.00
41515;BME280;27247;48.020;16.720;2022-11-21T09:38:06;99076.53;;;3.59;100.00
41515;BME280;27247;48.020;16.720;2022-11-21T09:47:03;99089.81;;;3.67;100.00
41515;BME280;27247;48.020;16.720;2022-11-21T09:51:18;99083.53;;;3.85;100.00
41515;BME280;27247;48.020;16.720;2022-11-21T09:59:52;99072.56;;;4.34;100.00
41515;BME280;27247;48.020;16.720;2022-11-21T10:04:03;99061.56;;;4.46;100.00
41515;BME280;27247;48.020;16.720;2022-11-21T10:08:27;99066.47;;;4.67;100.00
41515;BME280;27247;48.020;16.720;2022-11-21T10:17:15;99058.53;;;5.01;100.00
41515;BME280;27247;48.020;16.720;2022-11-21T10:30:56;99038.56;;;5.82;95.86
41515;BME280;27247;48.020;16.720;2022-11-21T10:39:48;99012.81;;;6.55;92.85
41515;BME280;27247;48.020;16.720;2022-11-21T10:48:31;99025.34;;;7.56;88.01
41515;BME280;27247;48.020;16.720;2022-11-21T10:52:47;99022.44;;;7.88;86.99
41515;BME280;27247;48.020;16.720;2022-11-21T10:57:09;99013.63;;;7.88;84.14
41515;BME280;27247;48.020;16.720;2022-11-21T11:05:36;99020.66;;;7.81;85.69
41515;BME280;27247;48.020;16.720;2022-11-21T11:09:47;99033.09;;;7.34;84.77
41515;BME280;27247;48.020;16.720;2022-11-21T11:14:03;99025.75;;;7.05;86.42
41515;BME280;27247;48.020;16.720;2022-11-21T11:18:14;99031.13;;;6.89;88.12
41515;BME280;27247;48.020;16.720;2022-11-21T11:22:28;99032.84;;;6.74;88.78
41515;BME280;27247;48.020;16.720;2022-11-21T11:30:56;99019.69;;;6.17;91.12
41515;BME280;27247;48.020;16.720;2022-11-21T11:39:38;99005.00;;;6.62;90.56
41515;BME280;27247;48.020;16.720;2022-11-21T11:44:02;99003.44;;;6.36;90.08
41515;BME280;27247;48.020;16.720;2022-11-21T11:48:36;99010.06;;;6.16;91.67
41515;BME280;27247;48.020;16.720;2022-11-21T11:57:26;99003.78;;;6.25;93.61
41515;BME280;27247;48.020;16.720;2022-11-21T12:06:00;99013.72;;;6.07;94.17
41515;BME280;27247;48.020;16.720;2022-11-21T12:10:17;99014.69;;;5.82;94.28
41515;BME280;27247;48.020;16.720;2022-11-21T12:19:22;99015.19;;;5.61;95.39
41515;BME280;27247;48.020;16.720;2022-11-21T12:23:41;99008.53;;;5.57;95.74
41515;BME280;27247;48.020;16.720;2022-11-21T12:27:54;99003.75;;;5.60;95.77
41515;BME280;27247;48.020;16.720;2022-11-21T12:32:27;99005.22;;;5.55;96.31
41515;BME280;27247;48.020;16.720;2022-11-21T12:36:54;99006.53;;;5.42;97.35
41515;BME280;27247;48.020;16.720;2022-11-21T12:46:18;99014.00;;;5.55;98.81
41515;BME280;27247;48.020;16.720;2022-11-21T12:50:44;99016.16;;;5.60;97.39
41515;BME280;27247;48.020;16.720;2022-11-21T12:55:23;99017.66;;;5.46;96.96
41515;BME280;27247;48.020;16.720;2022-11-21T13:04:22;99007.38;;;5.43;97.57
41515;BME280;27247;48.020;16.720;2022-11-21T13:08:36;99022.28;;;5.44;97.50
41515;BME280;27247;48.020;16.720;2022-11-21T13:13:37;99029.41;;;5.52;97.44
41515;BME280;27247;48.020;16.720;2022-11-21T13:21:45;99018.03;;;6.00;97.51
41515;BME280;27247;48.020;16.720;2022-11-21T13:25:57;99012.41;;;5.95;97.39
41515;BME280;27247;48.020;16.720;2022-11-21T13:34:36;99016.88;;;6.02;97.72
41515;BME280;27247;48.020;16.720;2022-11-21T13:51:52;99014.88;;;6.37;98.19
41515;BME280;27247;48.020;16.720;2022-11-21T14:09:46;99017.66;;;6.52;99.30
41515;BME280;27247;48.020;16.720;2022-11-21T14:13:58;99016.66;;;6.45;98.03
41515;BME280;27247;48.020;16.720;2022-11-21T14:18:29;99015.97;;;6.59;96.41
41515;BME280;27247;48.020;16.720;2022-11-21T14:27:15;99012.81;;;7.02;95.94
41515;BME280;27247;48.020;16.720;2022-11-21T14:31:49;99019.25;;;7.08;96.93
41515;BME280;27247;48.020;16.720;2022-11-21T14:36:21;99018.84;;;7.27;95.10
41515;BME280;27247;48.020;16.720;2022-11-21T14:40:32;99018.66;;;7.37;93.39
41515;BME280;27247;48.020;16.720;2022-11-21T14:44:43;99016.72;;;7.54;91.84
41515;BME280;27247;48.020;16.720;2022-11-21T14:48:54;99015.28;;;7.43;91.39
41515;BME280;27247;48.020;16.720;2022-11-21T14:53:09;99008.38;;;7.34;91.01
41515;BME280;27247;48.020;16.720;2022-11-21T14:57:29;99005.75;;;7.18;91.97
41515;BME280;27247;48.020;16.720;2022-11-21T15:01:57;98996.34;;;6.76;93.71
41515;BME280;27247;48.020;16.720;2022-11-21T15:06:09;99003.41;;;6.45;94.85
41515;BME280;27247;48.020;16.720;2022-11-21T15:10:21;98997.66;;;6.25;95.40
41515;BME280;27247;48.020;16.720;2022-11-21T15:14:41;98999.47;;;6.00;95.32
41515;BME280;27247;48.020;16.720;2022-11-21T15:18:54;98996.47;;;5.70;95.69
41515;BME280;27247;48.020;16.720;2022-11-21T15:23:28;99000.44;;;5.50;96.69
41515;BME280;27247;48.020;16.720;2022-11-21T15:27:38;98996.59;;;5.36;97.88
41515;BME280;27247;48.020;16.720;2022-11-21T15:32:08;98995.75;;;5.28;97.77
41515;BME280;27247;48.020;16.720;2022-11-21T15:36:19;98999.00;;;5.13;96.65
41515;BME280;27247;48.020;16.720;2022-11-21T15:40:29;98997.66;;;5.09;97.00
41515;BME280;27247;48.020;16.720;2022-11-21T15:44:56;98993.75;;;4.79;98.68
41515;BME280;27247;48.020;16.720;2022-11-21T15:49:11;98989.97;;;4.82;97.94
41515;BME280;27247;48.020;16.720;2022-11-21T15:53:22;98983.22;;;4.88;97.67
41515;BME280;27247;48.020;16.720;2022-11-21T15:57:32;98986.63;;;4.72;98.43
41515;BME280;27247;48.020;16.720;2022-11-21T16:01:42;98987.66;;;4.45;99.76
41515;BME280;27247;48.020;16.720;2022-11-21T16:05:53;98986.91;;;4.09;100.00
41515;BME280;27247;48.020;16.720;2022-11-21T16:10:04;98998.44;;;4.00;100.00
41515;BME280;27247;48.020;16.720;2022-11-21T16:14:15;98991.59;;;4.15;100.00
41515;BME280;27247;48.020;16.720;2022-11-21T16:18:28;98987.38;;;4.04;100.00
41515;BME280;27247;48.020;16.720;2022-11-21T16:22:39;98972.31;;;3.97;100.00
41515;BME280;27247;48.020;16.720;2022-11-21T16:26:50;98982.00;;;3.88;100.00
41515;BME280;27247;48.020;16.720;2022-11-21T16:31:04;98979.81;;;3.83;100.00
41515;BME280;27247;48.020;16.720;2022-11-21T16:35:14;98980.72;;;3.74;100.00
41515;BME280;27247;48.020;16.720;2022-11-21T16:39:25;98986.69;;;3.76;100.00
41515;BME280;27247;48.020;16.720;2022-11-21T16:43:36;98988.34;;;3.77;100.00
41515;BME280;27247;48.020;16.720;2022-11-21T16:47:46;98993.63;;;3.77;100.00
41515;BME280;27247;48.020;16.720;2022-11-21T16:51:57;98985.72;;;3.77;100.00
41515;BME280;27247;48.020;16.720;2022-11-21T16:56:09;98983.22;;;3.76;100.00
41515;BME280;27247;48.020;16.720;2022-11-21T17:00:21;98988.03;;;3.80;100.00
41515;BME280;27247;48.020;16.720;2022-11-21T17:04:35;98990.16;;;3.77;100.00
41515;BME280;27247;48.020;16.720;2022-11-21T17:08:46;98987.91;;;3.64;100.00
41515;BME280;27247;48.020;16.720;2022-11-21T17:12:58;98989.38;;;3.41;100.00
41515;BME280;27247;48.020;16.720;2022-11-21T17:17:09;99000.44;;;3.44;100.00
41515;BME280;27247;48.020;16.720;2022-11-21T17:21:19;98996.31;;;3.42;100.00
41515;BME280;27247;48.020;16.720;2022-11-21T17:25:31;98992.28;;;3.56;100.00
41515;BME280;27247;48.020;16.720;2022-11-21T17:29:41;98994.34;;;3.62;100.00
41515;BME280;27247;48.020;16.720;2022-11-21T17:33:54;98999.31;;;3.65;100.00
41515;BME280;27247;48.020;16.720;2022-11-21T17:38:05;98991.38;;;3.65;100.00
41515;BME280;27247;48.020;16.720;2022-11-21T17:42:16;98991.59;;;3.71;100.00
41515;BME280;27247;48.020;16.720;2022-11-21T17:46:27;98988.50;;;3.76;100.00
41515;BME280;27247;48.020;16.720;2022-11-21T17:50:38;98980.22;;;3.71;100.00
41515;BME280;27247;48.020;16.720;2022-11-21T17:54:48;98979.25;;;3.54;100.00
41515;BME280;27247;48.020;16.720;2022-11-21T17:58:59;98970.94;;;3.31;100.00
41515;BME280;27247;48.020;16.720;2022-11-21T18:03:10;98969.81;;;3.16;100.00
41515;BME280;27247;48.020;16.720;2022-11-21T18:07:22;98978.16;;;3.11;100.00
41515;BME280;27247;48.020;16.720;2022-11-21T18:11:34;98976.25;;;3.04;100.00
41515;BME280;27247;48.020;16.720;2022-11-21T18:15:44;98966.75;;;2.93;100.00
41515;BME280;27247;48.020;16.720;2022-11-21T18:19:55;98976.91;;;2.88;100.00
41515;BME280;27247;48.020;16.720;2022-11-21T18:24:06;98957.63;;;2.87;100.00
41515;BME280;27247;48.020;16.720;2022-11-21T18:28:19;98958.75;;;2.85;100.00
41515;BME280;27247;48.020;16.720;2022-11-21T18:32:29;98957.75;;;2.86;100.00
41515;BME280;27247;48.020;16.720;2022-11-21T18:36:40;98958.94;;;2.74;100.00
41515;BME280;27247;48.020;16.720;2022-11-21T18:40:51;98958.84;;;2.66;100.00
41515;BME280;27247;48.020;16.720;2022-11-21T18:45:02;98964.03;;;2.85;100.00
41515;BME280;27247;48.020;16.720;2022-11-21T18:49:13;98961.16;;;2.96;100.00
41515;BME280;27247;48.020;16.720;2022-11-21T18:53:24;98959.75;;;3.02;100.00
41515;BME280;27247;48.020;16.720;2022-11-21T18:57:36;98958.59;;;2.86;100.00
41515;BME280;27247;48.020;16.720;2022-11-21T19:01:48;98959.78;;;2.74;100.00
41515;BME280;27247;48.020;16.720;2022-11-21T19:05:59;98954.16;;;2.87;100.00
41515;BME280;27247;48.020;16.720;2022-11-21T19:10:10;98955.81;;;2.88;100.00
41515;BME280;27247;48.020;16.720;2022-11-21T19:14:22;98947.22;;;2.86;100.00
41515;BME280;27247;48.020;16.720;2022-11-21T19:18:35;98932.06;;;2.88;100.00
41515;BME280;27247;48.020;16.720;2022-11-21T19:22:46;98922.88;;;2.92;100.00
41515;BME280;27247;48.020;16.720;2022-11-21T19:26:57;98924.69;;;2.92;100.00
41515;BME280;27247;48.020;16.720;2022-11-21T19:31:13;98908.47;;;2.86;100.00
41515;BME280;27247;48.020;16.720;2022-11-21T19:35:24;98902.72;;;2.73;100.00
41515;BME280;27247;48.020;16.720;2022-11-21T19:39:35;98897.53;;;2.81;100.00
41515;BME280;27247;48.020;16.720;2022-11-21T19:48:00;98896.31;;;2.58;100.00
41515;BME280;27247;48.020;16.720;2022-11-21T19:52:11;98892.25;;;2.64;100.00
41515;BME280;27247;48.020;16.720;2022-11-21T19:56:24;98890.28;;;2.66;100.00
41515;BME280;27247;48.020;16.720;2022-11-21T20:00:35;98891.50;;;2.71;100.00
41515;BME280;27247;48.020;16.720;2022-11-21T20:04:45;98897.31;;;2.75;100.00
41515;BME280;27247;48.020;16.720;2022-11-21T20:09:01;98895.44;;;2.85;100.00
41515;BME280;27247;48.020;16.720;2022-11-21T20:13:13;98896.56;;;2.82;100.00
41515;BME280;27247;48.020;16.720;2022-11-21T20:17:23;98901.75;;;2.74;100.00
41515;BME280;27247;48.020;16.720;2022-11-21T20:21:35;98891.94;;;2.67;100.00
41515;BME280;27247;48.020;16.720;2022-11-21T20:25:50;98870.09;;;2.74;100.00
41515;BME280;27247;48.020;16.720;2022-11-21T20:30:08;98868.00;;;2.78;100.00
41515;BME280;27247;48.020;16.720;2022-11-21T20:34:21;98869.56;;;2.71;100.00
41515;BME280;27247;48.020;16.720;2022-11-21T20:38:32;98867.22;;;2.68;100.00
41515;BME280;27247;48.020;16.720;2022-11-21T20:42:43;98866.31;;;2.59;100.00
41515;BME280;27247;48.020;16.720;2022-11-21T20:46:54;98862.03;;;2.58;100.00
41515;BME280;27247;48.020;16.720;2022-11-21T20:51:05;98865.88;;;2.64;100.00
41515;BME280;27247;48.020;16.720;2022-11-21T20:55:15;98863.91;;;2.66;100.00
41515;BME280;27247;48.020;16.720;2022-11-21T20:59:26;98854.56;;;2.71;100.00
41515;BME280;27247;48.020;16.720;2022-11-21T21:03:38;98862.56;;;2.62;100.00
41515;BME280;27247;48.020;16.720;2022-11-21T21:07:49;98864.88;;;2.65;100.00
41515;BME280;27247;48.020;16.720;2022-11-21T21:11:59;98870.88;;;2.39;100.00
41515;BME280;27247;48.020;16.720;2022-11-21T21:16:32;98863.47;;;2.25;100.00
41515;BME280;27247;48.020;16.720;2022-11-21T21:20:43;98863.81;;;2.12;100.00
41515;BME280;27247;48.020;16.720;2022-11-21T21:24:54;98865.91;;;2.09;100.00
41515;BME280;27247;48.020;16.720;2022-11-21T21:29:04;98859.38;;;2.03;100.00
41515;BME280;27247;48.020;16.720;2022-11-21T21:33:15;98860.50;;;2.10;100.00
41515;BME280;27247;48.020;16.720;2022-11-21T21:37:25;98852.00;;;2.16;100.00
41515;BME280;27247;48.020;16.720;2022-11-21T21:41:35;98849.59;;;2.23;100.00
41515;BME280;27247;48.020;16.720;2022-11-21T21:45:48;98846.28;;;2.21;100.00
41515;BME280;27247;48.020;16.720;2022-11-21T21:49:59;98848.94;;;2.21;100.00
41515;BME280;27247;48.020;16.720;2022-11-21T21:54:17;98845.16;;;2.23;100.00
41515;BME280;27247;48.020;16.720;2022-11-21T21:58:32;98836.88;;;2.18;100.00
41515;BME280;27247;48.020;16.720;2022-11-21T22:02:43;98829.25;;;2.15;100.00
41515;BME280;27247;48.020;16.720;2022-11-21T22:06:53;98828.44;;;2.15;100.00
41515;BME280;27247;48.020;16.720;2022-11-21T22:11:06;98816.84;;;2.26;100.00
41515;BME280;27247;48.020;16.720;2022-11-21T22:15:16;98809.16;;;2.14;100.00
41515;BME280;27247;48.020;16.720;2022-11-21T22:19:27;98801.53;;;2.11;100.00
41515;BME280;27247;48.020;16.720;2022-11-21T22:23:37;98787.63;;;1.91;100.00
41515;BME280;27247;48.020;16.720;2022-11-21T22:27:47;98794.00;;;1.89;100.00
41515;BME280;27247;48.020;16.720;2022-11-21T22:31:58;98794.59;;;1.83;100.00
41515;BME280;27247;48.020;16.720;2022-11-21T22:36:13;98794.75;;;1.81;100.00
41515;BME280;27247;48.020;16.720;2022-11-21T22:40:24;98785.38;;;1.69;100.00
41515;BME280;27247;48.020;16.720;2022-11-21T22:44:34;98783.44;;;1.71;100.00
41515;BME280;27247;48.020;16.720;2022-11-21T22:48:46;98762.41;;;1.62;100.00
41515;BME280;27247;48.020;16.720;2022-11-21T22:52:57;98775.31;;;1.55;100.00
41515;BME280;27247;48.020;16.720;2022-11-21T22:57:07;98772.97;;;1.52;100.00
41515;BME280;27247;48.020;16.720;2022-11-21T23:01:20;98764.53;;;1.48;100.00
41515;BME280;27247;48.020;16.720;2022-11-21T23:05:30;98759.97;;;1.50;100.00
41515;BME280;27247;48.020;16.720;2022-11-21T23:09:41;98760.25;;;1.47;100.00
41515;BME280;27247;48.020;16.720;2022-11-21T23:13:52;98759.13;;;1.50;100.00
41515;BME280;27247;48.020;16.720;2022-11-21T23:18:02;98758.59;;;1.46;100.00
41515;BME280;27247;48.020;16.720;2022-11-21T23:22:13;98759.81;;;1.52;100.00
41515;BME280;27247;48.020;16.720;2022-11-21T23:26:23;98748.50;;;1.42;100.00
41515;BME280;27247;48.020;16.720;2022-11-21T23:30:33;98745.75;;;1.34;100.00
41515;BME280;27247;48.020;16.720;2022-11-21T23:34:44;98739.13;;;1.30;100.00
41515;BME280;27247;48.020;16.720;2022-11-21T23:38:54;98732.78;;;1.22;100.00
41515;BME280;27247;48.020;16.720;2022-11-21T23:43:05;98733.88;;;1.20;100.00
41515;BME280;27247;48.020;16.720;2022-11-21T23:47:15;98729.47;;;1.20;100.00
41515;BME280;27247;48.020;16.720;2022-11-21T23:51:25;98726.16;;;1.18;100.00
41515;BME280;27247;48.020;16.720;2022-11-21T23:55:36;98724.81;;;1.05;100.00